Seagoville's Hourly Summary for Friday, May 11, 2018
Hour Temp
(f)
RH
(%)
Solar Rad.
(MJ/m2)
Rainfall
(in)
Wind
(mph)
5/11/2018 12:00 AM 72 65 0 0 8.74
5/11/2018 1:00 AM 72 68 0 0 10.02
5/11/2018 2:00 AM 71 69 0 0 10.03
5/11/2018 3:00 AM 70 72 0 0 9.64
5/11/2018 4:00 AM 69 79 0 0 9.28
5/11/2018 5:00 AM 69 83 0 0 10.7
5/11/2018 6:00 AM 69 84 0.02 0 8.6
5/11/2018 7:00 AM 69 83 0.28 0 9.15
5/11/2018 8:00 AM 71 77 0.97 0 10.96
5/11/2018 9:00 AM 74 68 1.7 0 10.89
5/11/2018 10:00 AM 76 64 1.79 0 13.45
5/11/2018 11:00 AM 78 55 2.77 0 15.07
5/11/2018 12:00 PM 80 51 2.47 0 13.18
5/11/2018 1:00 PM 82 47 2.72 0 14
5/11/2018 2:00 PM 83 46 2.23 0 12.7
5/11/2018 3:00 PM 84 44 2.48 0 12.43
5/11/2018 4:00 PM 84 44 1.54 0 11.76
5/11/2018 5:00 PM 83 46 0.93 0 10.45
5/11/2018 6:00 PM 83 46 0.95 0 10.69
5/11/2018 7:00 PM 82 47 0.27 0 7.89
5/11/2018 8:00 PM 78 52 0.01 0 4.88
5/11/2018 9:00 PM 74 60 0 0 3.66
5/11/2018 10:00 PM 73 62 0 0 4.64
5/11/2018 11:00 PM 74 65 0 0 6.87
Data Summary 75 61 21.13 0.00 9.99